createdAt,value
2019-02-16T00:00:57.507Z,6.00
2019-02-16T00:02:01.543Z,6.00
2019-02-16T00:03:06.265Z,6.00
2019-02-16T00:04:10.183Z,6.00
2019-02-16T00:05:14.102Z,6.00
2019-02-16T00:06:18.093Z,6.00
2019-02-16T00:07:23.513Z,6.00
2019-02-16T00:08:29.081Z,6.00
2019-02-16T00:09:33.301Z,6.00
2019-02-16T00:10:37.875Z,6.00
2019-02-16T00:11:42.046Z,6.00
2019-02-16T00:12:46.123Z,6.00
2019-02-16T00:13:50.077Z,6.00
2019-02-16T00:14:54.105Z,6.00
2019-02-16T00:15:58.109Z,5.90
2019-02-16T00:17:02.141Z,5.90
2019-02-16T00:18:06.255Z,5.90
2019-02-16T00:19:13.368Z,5.90
2019-02-16T00:20:17.267Z,5.80
2019-02-16T00:21:21.213Z,5.80
2019-02-16T00:22:25.091Z,5.80
2019-02-16T00:23:29.045Z,5.90
2019-02-16T00:24:32.959Z,5.80
2019-02-16T00:25:37.207Z,5.90
2019-02-16T00:26:41.072Z,5.90
2019-02-16T00:27:45.103Z,5.80
2019-02-16T00:28:49.015Z,5.90
2019-02-16T00:29:52.981Z,5.70
2019-02-16T00:30:56.879Z,5.70
2019-02-16T00:32:00.817Z,5.70
2019-02-16T00:33:04.722Z,5.60
2019-02-16T00:34:08.647Z,5.60
2019-02-16T00:35:12.561Z,5.60
2019-02-16T00:36:17.356Z,5.50
2019-02-16T00:37:21.261Z,5.50
2019-02-16T00:38:25.149Z,5.50
2019-02-16T00:39:29.159Z,5.50
2019-02-16T00:40:33.120Z,5.50
2019-02-16T00:41:38.570Z,5.50
2019-02-16T00:42:42.474Z,5.60
2019-02-16T00:43:46.474Z,5.60
2019-02-16T00:44:50.374Z,5.60
2019-02-16T00:45:54.312Z,5.60
2019-02-16T00:46:58.258Z,5.60
2019-02-16T00:48:02.175Z,5.60
2019-02-16T00:49:06.066Z,5.60
2019-02-16T00:50:09.964Z,5.60
2019-02-16T00:51:14.202Z,5.60
2019-02-16T00:52:18.200Z,5.60
2019-02-16T00:53:22.121Z,5.60
2019-02-16T00:54:26.046Z,5.60
2019-02-16T00:55:29.921Z,5.60
2019-02-16T00:56:33.818Z,5.50
2019-02-16T00:57:37.770Z,5.50
2019-02-16T00:58:41.663Z,5.50
2019-02-16T00:59:45.718Z,5.50
2019-02-16T01:00:49.669Z,5.60
2019-02-16T01:01:53.618Z,5.50
2019-02-16T01:02:57.535Z,5.60
2019-02-16T01:04:01.431Z,5.50
2019-02-16T01:05:06.657Z,5.60
2019-02-16T01:06:10.611Z,5.60
2019-02-16T01:07:14.523Z,5.60
2019-02-16T01:08:18.457Z,5.70
2019-02-16T01:09:22.543Z,5.70
2019-02-16T01:10:26.438Z,5.70
2019-02-16T01:11:30.410Z,5.70
2019-02-16T01:12:34.315Z,5.70
2019-02-16T01:13:38.300Z,5.80
2019-02-16T01:14:42.211Z,5.80
2019-02-16T01:15:46.095Z,5.80
2019-02-16T01:16:50.004Z,5.80
2019-02-16T01:17:53.937Z,5.80
2019-02-16T01:18:58.129Z,5.90
2019-02-16T01:20:02.007Z,5.90
2019-02-16T01:21:05.969Z,5.80
2019-02-16T01:22:09.961Z,5.90
2019-02-16T01:23:13.866Z,6.00
2019-02-16T01:24:17.946Z,6.00
2019-02-16T01:25:21.909Z,6.00
2019-02-16T01:26:25.801Z,6.00
2019-02-16T01:27:29.729Z,6.10
2019-02-16T01:28:33.626Z,6.10
2019-02-16T01:29:37.844Z,6.10
2019-02-16T01:30:41.953Z,6.20
2019-02-16T01:31:45.930Z,6.20
2019-02-16T01:32:49.942Z,6.20
2019-02-16T01:33:53.844Z,6.20
2019-02-16T01:34:57.801Z,6.10
2019-02-16T01:36:01.830Z,6.00
2019-02-16T01:37:05.998Z,6.10
2019-02-16T01:38:09.868Z,6.00
2019-02-16T01:39:13.839Z,5.90
2019-02-16T01:40:17.923Z,6.00
2019-02-16T01:41:21.943Z,6.00
2019-02-16T01:42:25.881Z,6.00
2019-02-16T01:43:29.857Z,6.00
2019-02-16T01:44:33.818Z,6.00
2019-02-16T01:45:37.749Z,5.90
2019-02-16T01:46:41.713Z,5.90
2019-02-16T01:47:51.362Z,5.90
2019-02-16T01:48:55.467Z,5.90
2019-02-16T01:49:59.375Z,5.80
2019-02-16T01:51:03.324Z,5.70
2019-02-16T01:52:07.333Z,5.80
2019-02-16T01:53:11.242Z,5.80
2019-02-16T01:54:15.280Z,5.70
2019-02-16T01:55:19.248Z,5.80
2019-02-16T01:56:23.306Z,5.80
2019-02-16T01:57:28.440Z,5.80
2019-02-16T01:58:32.359Z,5.80
2019-02-16T01:59:36.374Z,5.80
2019-02-16T02:00:40.460Z,5.80
2019-02-16T02:01:44.520Z,5.80
2019-02-16T02:02:48.392Z,5.80
2019-02-16T02:03:52.312Z,5.70
2019-02-16T02:04:56.298Z,5.70
2019-02-16T02:06:00.228Z,5.60
2019-02-16T02:07:04.226Z,5.50
2019-02-16T02:08:08.127Z,5.50
2019-02-16T02:09:12.390Z,5.50
2019-02-16T02:10:16.608Z,5.50
2019-02-16T02:11:20.535Z,5.50
2019-02-16T02:12:24.619Z,5.40
2019-02-16T02:13:28.537Z,5.40
2019-02-16T02:14:32.503Z,5.50
2019-02-16T02:15:36.477Z,5.40
2019-02-16T02:16:40.496Z,5.40
2019-02-16T02:17:44.668Z,5.40
2019-02-16T02:18:49.974Z,5.30
2019-02-16T02:19:53.894Z,5.40
2019-02-16T02:20:57.822Z,5.40
2019-02-16T02:22:01.794Z,5.40
2019-02-16T02:23:05.754Z,5.40
2019-02-16T02:24:09.671Z,5.30
2019-02-16T02:25:13.617Z,5.30
2019-02-16T02:26:17.492Z,5.30
2019-02-16T02:27:21.560Z,5.30
2019-02-16T02:28:25.469Z,5.30
2019-02-16T02:29:29.388Z,5.30
2019-02-16T02:30:36.038Z,5.20
2019-02-16T02:31:40.131Z,5.20
2019-02-16T02:32:44.166Z,5.30
2019-02-16T02:33:48.206Z,5.30
2019-02-16T02:34:52.330Z,5.40
2019-02-16T02:35:56.215Z,5.40
2019-02-16T02:37:00.215Z,5.40
2019-02-16T02:38:04.395Z,5.40
2019-02-16T02:39:08.346Z,5.40
2019-02-16T02:40:12.507Z,5.50
2019-02-16T02:41:16.416Z,5.50
2019-02-16T02:42:20.474Z,5.50
2019-02-16T02:43:24.369Z,5.50
2019-02-16T02:44:28.305Z,5.50
2019-02-16T02:45:32.299Z,5.50
2019-02-16T02:50:30.396Z,5.50
2019-02-16T02:51:34.314Z,5.50
2019-02-16T02:52:38.236Z,5.50
2019-02-16T02:53:42.308Z,5.60
2019-02-16T02:54:46.188Z,5.60
2019-02-16T02:55:50.158Z,5.50
2019-02-16T02:56:54.196Z,5.40
2019-02-16T02:57:58.198Z,5.50
2019-02-16T02:59:02.276Z,5.50
2019-02-16T03:00:08.905Z,5.50
2019-02-16T03:01:12.923Z,5.50
2019-02-16T03:02:16.956Z,5.50
2019-02-16T03:03:20.826Z,5.60
2019-02-16T03:04:24.798Z,5.50
2019-02-16T03:05:28.681Z,5.50
2019-02-16T03:06:32.576Z,5.50
2019-02-16T03:07:36.492Z,5.50
2019-02-16T03:08:40.366Z,5.50
2019-02-16T03:09:44.378Z,5.50
2019-02-16T03:10:48.317Z,5.50
2019-02-16T03:11:52.204Z,5.50
2019-02-16T03:12:56.105Z,5.40
2019-02-16T03:14:00.016Z,5.40
2019-02-16T03:15:04.416Z,5.30
2019-02-16T03:16:12.690Z,5.30
2019-02-16T03:17:16.787Z,5.30
2019-02-16T03:18:20.826Z,5.30
2019-02-16T03:19:24.718Z,5.30
2019-02-16T03:20:28.613Z,5.20
2019-02-16T03:21:32.574Z,5.20
2019-02-16T03:23:08.495Z,5.20
2019-02-16T03:24:12.414Z,5.20
2019-02-16T03:25:16.360Z,5.20
2019-02-16T03:26:38.805Z,5.20
2019-02-16T03:27:48.866Z,5.20
2019-02-16T03:28:56.347Z,5.20
2019-02-16T03:30:24.572Z,5.30
2019-02-16T03:31:51.177Z,5.30
2019-02-16T03:33:10.205Z,5.30
2019-02-16T03:34:28.934Z,5.30
2019-02-16T03:35:36.126Z,5.30
2019-02-16T03:37:04.813Z,5.30
2019-02-16T03:38:14.885Z,5.30
2019-02-16T03:39:18.857Z,5.30
2019-02-16T03:40:22.920Z,5.30
2019-02-16T03:41:26.776Z,5.40
2019-02-16T03:42:30.758Z,5.40
2019-02-16T03:43:34.688Z,5.40
2019-02-16T03:44:38.632Z,5.40
2019-02-16T03:45:42.556Z,5.40
2019-02-16T03:46:46.526Z,5.40
2019-02-16T03:47:50.428Z,5.30
2019-02-16T03:48:54.345Z,5.30
2019-02-16T03:49:58.314Z,5.30
2019-02-16T03:51:02.228Z,5.40
2019-02-16T03:52:13.374Z,5.40
2019-02-16T03:53:11.712Z,5.40
2019-02-16T03:54:15.632Z,5.30
2019-02-16T03:55:19.523Z,5.30
2019-02-16T03:56:23.473Z,5.20
2019-02-16T03:57:27.371Z,5.20
2019-02-16T03:58:31.275Z,5.10
2019-02-16T03:59:35.176Z,5.10
2019-02-16T04:00:39.218Z,5.10
2019-02-16T04:01:43.178Z,5.10
2019-02-16T04:02:47.347Z,5.10
2019-02-16T04:03:51.282Z,5.10
2019-02-16T04:04:55.187Z,5.10
2019-02-16T04:05:59.157Z,5.10
2019-02-16T04:07:03.148Z,5.00
2019-02-16T04:08:07.054Z,5.00
2019-02-16T04:09:10.985Z,4.90
2019-02-16T04:10:14.932Z,5.00
2019-02-16T04:11:18.830Z,4.90
2019-02-16T04:12:22.944Z,4.90
2019-02-16T04:13:27.039Z,4.90
2019-02-16T04:14:31.011Z,4.80
2019-02-16T04:15:35.090Z,4.90
2019-02-16T04:16:39.005Z,4.90
2019-02-16T04:17:43.193Z,5.00
2019-02-16T04:18:47.115Z,5.00
2019-02-16T04:19:51.250Z,5.00
2019-02-16T04:20:55.192Z,5.00
2019-02-16T04:21:59.111Z,5.00
2019-02-16T04:23:03.086Z,5.00
2019-02-16T04:24:06.987Z,5.00
2019-02-16T04:25:11.024Z,5.00
2019-02-16T04:26:15.049Z,5.00
2019-02-16T04:27:18.944Z,5.00
2019-02-16T04:28:22.854Z,5.00
2019-02-16T04:29:26.784Z,5.00
2019-02-16T04:30:30.708Z,5.00
2019-02-16T04:31:34.641Z,5.00
2019-02-16T04:32:38.554Z,5.00
2019-02-16T04:33:42.475Z,4.90
2019-02-16T04:34:46.574Z,4.90
2019-02-16T04:35:50.532Z,4.90
2019-02-16T04:36:54.566Z,4.90
2019-02-16T04:37:58.455Z,4.90
2019-02-16T04:39:03.913Z,4.90
2019-02-16T04:40:09.643Z,4.80
2019-02-16T04:41:13.637Z,4.80
2019-02-16T04:42:17.608Z,4.90
2019-02-16T04:43:21.558Z,4.90
2019-02-16T04:44:25.457Z,4.70
2019-02-16T04:45:29.458Z,4.70
2019-02-16T04:46:33.432Z,4.80
2019-02-16T04:47:37.401Z,4.80
2019-02-16T04:48:41.399Z,4.70
2019-02-16T04:49:45.321Z,4.70
2019-02-16T04:50:49.326Z,4.70
2019-02-16T04:51:53.387Z,4.70
2019-02-16T04:52:57.312Z,4.70
2019-02-16T04:54:01.435Z,4.70
2019-02-16T04:55:07.176Z,4.60
2019-02-16T04:56:11.520Z,4.60
2019-02-16T04:57:15.505Z,4.70
2019-02-16T04:58:19.487Z,4.70
2019-02-16T04:59:23.526Z,4.80
2019-02-16T05:00:27.423Z,4.80
2019-02-16T05:01:31.431Z,4.80
2019-02-16T05:02:35.427Z,4.80
2019-02-16T05:03:39.336Z,4.80
2019-02-16T05:04:43.239Z,4.80
2019-02-16T05:05:47.159Z,4.90
2019-02-16T05:06:51.054Z,4.90
2019-02-16T05:07:55.013Z,4.90
2019-02-16T05:08:58.913Z,4.90
2019-02-16T05:10:03.217Z,4.90
2019-02-16T05:11:07.118Z,4.90
2019-02-16T05:12:11.090Z,4.90
2019-02-16T05:13:15.100Z,4.90
2019-02-16T05:14:19.081Z,5.00
2019-02-16T05:15:23.208Z,4.80
2019-02-16T05:16:27.192Z,4.80
2019-02-16T05:17:31.112Z,4.80
2019-02-16T05:18:35.044Z,4.90
2019-02-16T05:19:38.979Z,4.90
2019-02-16T05:20:42.983Z,4.90
2019-02-16T05:21:47.086Z,4.90
2019-02-16T05:22:51.058Z,4.90
2019-02-16T05:23:55.070Z,4.90
2019-02-16T05:24:59.095Z,4.80
2019-02-16T05:26:03.022Z,4.90
2019-02-16T05:27:06.937Z,4.80
2019-02-16T05:28:10.976Z,4.80
2019-02-16T05:29:15.081Z,4.90
2019-02-16T05:30:19.008Z,5.00
2019-02-16T05:31:22.895Z,5.00
2019-02-16T05:32:26.857Z,5.00
2019-02-16T05:33:30.764Z,5.00
2019-02-16T05:34:34.731Z,5.10
2019-02-16T05:35:38.672Z,5.10
2019-02-16T05:36:42.531Z,5.10
2019-02-16T05:37:46.540Z,5.10
2019-02-16T05:38:50.524Z,5.10
2019-02-16T05:39:54.497Z,5.10
2019-02-16T05:40:58.403Z,5.10
2019-02-16T05:42:02.293Z,5.10
2019-02-16T05:43:06.186Z,5.00
2019-02-16T05:44:10.083Z,5.00
2019-02-16T05:45:14.024Z,5.10
2019-02-16T05:46:17.909Z,5.00
2019-02-16T05:47:21.958Z,5.00
2019-02-16T05:48:25.883Z,5.00
2019-02-16T05:49:29.805Z,5.10
2019-02-16T05:50:33.720Z,5.00
2019-02-16T05:51:37.657Z,5.00
2019-02-16T05:52:41.642Z,5.10
2019-02-16T05:53:45.587Z,5.10
2019-02-16T05:54:49.525Z,5.10
2019-02-16T05:55:53.454Z,5.10
2019-02-16T05:56:57.415Z,5.00
2019-02-16T05:58:01.367Z,4.90
2019-02-16T05:59:05.274Z,4.90
2019-02-16T06:00:11.575Z,4.90
2019-02-16T06:01:15.520Z,4.80
2019-02-16T06:02:19.676Z,4.80
2019-02-16T06:03:23.526Z,4.80
2019-02-16T06:04:27.454Z,4.80
2019-02-16T06:05:31.378Z,4.80
2019-02-16T06:06:35.354Z,4.70
2019-02-16T06:07:39.264Z,4.70
2019-02-16T06:08:43.280Z,4.70
2019-02-16T06:09:47.207Z,4.80
2019-02-16T06:10:52.325Z,4.80
2019-02-16T06:11:56.245Z,4.70
2019-02-16T06:13:00.203Z,4.70
2019-02-16T06:14:04.121Z,4.70
2019-02-16T06:15:09.070Z,4.70
2019-02-16T06:16:12.912Z,4.70
2019-02-16T06:17:16.918Z,4.80
2019-02-16T06:18:21.058Z,4.70
2019-02-16T06:19:25.079Z,4.70
2019-02-16T06:20:29.050Z,4.70
2019-02-16T06:21:32.996Z,4.60
2019-02-16T06:22:36.908Z,4.60
2019-02-16T06:23:40.897Z,4.60
2019-02-16T06:24:44.803Z,4.50
2019-02-16T06:25:48.807Z,4.60
2019-02-16T06:26:52.716Z,4.60
2019-02-16T06:27:56.805Z,4.60
2019-02-16T06:29:00.708Z,4.70
2019-02-16T06:30:06.863Z,4.70
2019-02-16T06:31:10.950Z,4.80
2019-02-16T06:32:15.087Z,4.80
2019-02-16T06:33:19.079Z,4.80
2019-02-16T06:34:23.015Z,4.70
2019-02-16T06:35:28.737Z,4.80
2019-02-16T06:36:34.957Z,4.90
2019-02-16T06:37:38.947Z,4.90
2019-02-16T06:38:42.955Z,4.90
2019-02-16T06:39:46.859Z,4.90
2019-02-16T06:40:50.789Z,4.90
2019-02-16T06:41:54.834Z,5.00
2019-02-16T06:42:58.891Z,5.00
2019-02-16T06:44:02.873Z,5.00
2019-02-16T06:45:08.019Z,4.90
2019-02-16T06:46:11.992Z,5.00
2019-02-16T06:47:16.039Z,5.00
2019-02-16T06:48:20.053Z,5.00
2019-02-16T06:49:24.251Z,5.00
2019-02-16T06:50:36.556Z,5.00
2019-02-16T06:51:33.813Z,5.00
2019-02-16T06:52:37.694Z,5.00
2019-02-16T06:53:41.629Z,5.10
2019-02-16T06:54:45.647Z,5.10
2019-02-16T06:55:54.277Z,5.10
2019-02-16T06:57:02.803Z,5.20
2019-02-16T06:58:06.750Z,5.20
2019-02-16T06:59:10.677Z,5.20
2019-02-16T07:00:16.019Z,5.20
2019-02-16T07:01:20.011Z,5.10
2019-02-16T07:02:25.002Z,5.10
2019-02-16T07:03:28.987Z,5.10
2019-02-16T07:04:33.017Z,5.20
2019-02-16T07:05:36.989Z,5.20
2019-02-16T07:06:41.031Z,5.10
2019-02-16T07:07:44.910Z,5.20
2019-02-16T07:08:49.044Z,5.20
2019-02-16T07:09:52.921Z,5.20
2019-02-16T07:10:56.960Z,5.20
2019-02-16T07:12:00.963Z,5.20
2019-02-16T07:13:04.929Z,5.20
2019-02-16T07:14:08.931Z,5.20
2019-02-16T07:15:12.820Z,5.20
2019-02-16T07:16:24.394Z,5.30
2019-02-16T07:17:35.599Z,5.20
2019-02-16T07:18:41.284Z,5.30
2019-02-16T07:19:46.923Z,5.30
2019-02-16T07:20:50.923Z,5.30
2019-02-16T07:21:54.862Z,5.30
2019-02-16T07:22:58.756Z,5.30
2019-02-16T07:24:02.772Z,5.30
2019-02-16T07:25:07.635Z,5.20
2019-02-16T07:26:11.635Z,5.20
2019-02-16T07:27:15.675Z,5.20
2019-02-16T07:28:19.567Z,5.30
2019-02-16T07:29:23.510Z,5.30
2019-02-16T07:30:27.675Z,5.30
2019-02-16T07:31:31.568Z,5.40
2019-02-16T07:32:35.601Z,5.40
2019-02-16T07:33:39.917Z,5.40
2019-02-16T07:34:43.794Z,5.30
2019-02-16T07:35:47.829Z,5.30
2019-02-16T07:36:51.846Z,5.30
2019-02-16T07:37:55.857Z,5.30
2019-02-16T07:38:59.719Z,5.30
2019-02-16T07:40:04.508Z,5.30
2019-02-16T07:41:08.403Z,5.30
2019-02-16T07:42:12.395Z,5.40
2019-02-16T07:43:17.921Z,5.40
2019-02-16T07:44:29.340Z,5.40
2019-02-16T07:45:43.992Z,5.50
2019-02-16T07:46:58.154Z,5.50
2019-02-16T07:48:03.662Z,5.40
2019-02-16T07:49:09.261Z,5.40
2019-02-16T07:50:14.801Z,5.50
2019-02-16T07:51:20.405Z,5.50
2019-02-16T07:52:26.093Z,5.50
2019-02-16T07:53:35.680Z,5.50
2019-02-16T07:54:41.349Z,5.60
2019-02-16T07:55:47.034Z,5.50
2019-02-16T07:56:53.401Z,5.60
2019-02-16T07:58:04.753Z,5.50
2019-02-16T07:59:10.307Z,5.50
2019-02-16T08:00:19.087Z,5.60
2019-02-16T08:01:30.085Z,5.60
2019-02-16T08:02:35.701Z,5.50
2019-02-16T08:03:50.207Z,5.50
2019-02-16T08:05:07.577Z,5.50
2019-02-16T08:06:28.087Z,5.50
2019-02-16T08:07:33.707Z,5.60
2019-02-16T08:08:42.424Z,5.60
2019-02-16T08:09:53.959Z,5.60
2019-02-16T08:11:16.149Z,5.70
2019-02-16T08:12:39.612Z,5.70
2019-02-16T08:13:50.952Z,5.70
2019-02-16T08:14:56.591Z,5.70
2019-02-16T08:16:05.102Z,5.80
2019-02-16T08:17:10.712Z,5.70
2019-02-16T08:18:16.421Z,5.70
2019-02-16T08:19:24.809Z,5.70
2019-02-16T08:20:30.509Z,5.80
2019-02-16T08:21:52.325Z,5.70
2019-02-16T08:23:03.736Z,5.80
2019-02-16T08:24:12.424Z,5.70
2019-02-16T08:25:33.959Z,5.80
2019-02-16T08:26:42.129Z,5.80
2019-02-16T08:27:47.665Z,5.80
2019-02-16T08:28:53.212Z,5.70
2019-02-16T08:30:07.819Z,5.70
2019-02-16T08:31:22.366Z,5.70
2019-02-16T08:32:33.832Z,5.60
2019-02-16T08:33:42.146Z,5.70
2019-02-16T08:34:53.679Z,5.80
2019-02-16T08:35:59.336Z,5.80
2019-02-16T08:37:04.944Z,5.80
2019-02-16T08:38:10.599Z,5.80
2019-02-16T08:39:22.079Z,5.80
2019-02-16T08:40:27.712Z,5.90
2019-02-16T08:41:33.362Z,5.90
2019-02-16T08:42:44.446Z,6.00
2019-02-16T08:43:52.543Z,6.00
2019-02-16T08:45:07.037Z,6.00
2019-02-16T08:46:12.650Z,6.00
2019-02-16T08:47:18.494Z,6.10
2019-02-16T08:48:39.082Z,6.10
2019-02-16T08:49:47.519Z,6.20
2019-02-16T08:50:54.725Z,6.20
2019-02-16T08:52:09.105Z,6.10
2019-02-16T08:53:15.077Z,6.10
2019-02-16T08:54:29.936Z,6.00
2019-02-16T08:55:35.641Z,6.00
2019-02-16T08:56:41.325Z,6.00
2019-02-16T08:58:03.715Z,5.90
2019-02-16T08:59:15.225Z,6.00
2019-02-16T09:00:29.945Z,6.00
2019-02-16T09:01:50.593Z,6.00
2019-02-16T09:02:57.860Z,6.00
2019-02-16T09:04:04.710Z,6.00
2019-02-16T09:05:26.884Z,5.90
2019-02-16T09:06:35.547Z,5.90
2019-02-16T09:07:44.593Z,5.90
2019-02-16T09:08:50.621Z,5.90
2019-02-16T09:10:02.081Z,5.90
2019-02-16T09:11:13.468Z,6.00
2019-02-16T09:12:19.181Z,6.00
2019-02-16T09:13:28.517Z,6.10
2019-02-16T09:14:37.104Z,6.10
2019-02-16T09:16:01.851Z,6.20
2019-02-16T09:17:25.769Z,6.30
2019-02-16T09:18:48.708Z,6.30
2019-02-16T09:19:56.009Z,6.40
2019-02-16T09:21:14.155Z,6.40
2019-02-16T09:22:17.893Z,6.40
2019-02-16T09:23:23.525Z,6.30
2019-02-16T09:24:29.146Z,6.30
2019-02-16T09:25:55.516Z,6.40
2019-02-16T09:27:18.480Z,6.40
2019-02-16T09:28:42.752Z,6.50
2019-02-16T09:29:50.952Z,6.50
2019-02-16T09:30:57.978Z,6.50
2019-02-16T09:32:13.216Z,6.50
2019-02-16T09:33:30.766Z,6.60
2019-02-16T09:34:42.048Z,6.50
2019-02-16T09:35:47.589Z,6.50
2019-02-16T09:37:09.666Z,6.50
2019-02-16T09:38:31.288Z,6.60
2019-02-16T09:39:59.722Z,6.50
2019-02-16T09:41:12.920Z,6.50
2019-02-16T09:42:21.342Z,6.60
2019-02-16T09:43:33.007Z,6.60
2019-02-16T09:44:57.251Z,6.60
2019-02-16T09:46:03.456Z,6.50
2019-02-16T09:47:10.306Z,6.60
2019-02-16T09:48:31.856Z,6.70
2019-02-16T09:49:36.927Z,6.70
2019-02-16T09:50:48.581Z,6.80
2019-02-16T09:51:56.753Z,6.80
2019-02-16T09:53:11.078Z,6.90
2019-02-16T09:54:32.653Z,6.90
2019-02-16T09:55:47.048Z,6.90
2019-02-16T09:57:10.697Z,6.90
2019-02-16T09:58:22.100Z,6.90
2019-02-16T09:59:45.540Z,6.90
2019-02-16T10:00:57.405Z,6.90
2019-02-16T10:02:10.794Z,7.00
2019-02-16T10:03:32.471Z,7.10
2019-02-16T10:04:38.060Z,7.00
2019-02-16T10:05:52.597Z,7.10
2019-02-16T10:07:13.255Z,7.20
2019-02-16T10:08:21.878Z,7.20
2019-02-16T10:09:30.165Z,7.30
2019-02-16T10:10:41.777Z,7.20
2019-02-16T10:11:50.074Z,7.20
2019-02-16T10:13:00.555Z,7.20
2019-02-16T10:14:05.829Z,7.20
2019-02-16T10:15:28.188Z,7.20
2019-02-16T10:16:49.112Z,7.20
2019-02-16T10:17:54.677Z,7.30
2019-02-16T10:19:09.412Z,7.30
2019-02-16T10:20:20.846Z,7.40
2019-02-16T10:21:38.510Z,7.40
2019-02-16T10:22:54.481Z,7.50
2019-02-16T10:24:17.954Z,7.60
2019-02-16T10:25:35.969Z,7.60
2019-02-16T10:26:44.079Z,7.60
2019-02-16T10:27:55.643Z,7.50
2019-02-16T10:29:10.104Z,7.60
2019-02-16T10:30:15.800Z,7.70
2019-02-16T10:31:21.334Z,7.70
2019-02-16T10:32:41.677Z,7.80
2019-02-16T10:33:47.257Z,7.80
2019-02-16T10:34:52.888Z,7.80
2019-02-16T10:36:04.416Z,7.80
2019-02-16T10:37:10.033Z,7.60
2019-02-16T10:38:27.760Z,7.60
2019-02-16T10:39:33.302Z,7.60
2019-02-16T10:40:38.945Z,7.50
2019-02-16T10:41:47.155Z,7.50
2019-02-16T10:42:55.358Z,7.50
2019-02-16T10:44:03.606Z,7.40
2019-02-16T10:45:09.169Z,7.40
2019-02-16T10:46:14.708Z,7.30
2019-02-16T10:47:29.527Z,7.30
2019-02-16T10:48:47.454Z,7.30
2019-02-16T10:50:08.254Z,7.30
2019-02-16T10:51:29.156Z,7.30
2019-02-16T10:52:40.657Z,7.40
2019-02-16T10:54:05.958Z,7.50
2019-02-16T10:55:14.052Z,7.50
2019-02-16T10:56:19.660Z,7.50
2019-02-16T10:57:28.197Z,7.50
2019-02-16T10:58:33.779Z,7.50
2019-02-16T10:59:45.952Z,7.60
2019-02-16T11:01:03.671Z,7.60
2019-02-16T11:02:11.661Z,7.60
2019-02-16T11:03:31.966Z,7.60
2019-02-16T11:04:46.484Z,7.60
2019-02-16T11:05:55.406Z,7.60
2019-02-16T11:07:06.624Z,7.70
2019-02-16T11:08:17.980Z,7.70
2019-02-16T11:09:29.488Z,7.50
2019-02-16T11:10:37.786Z,7.50
2019-02-16T11:11:46.089Z,7.40
2019-02-16T11:12:57.518Z,7.50
2019-02-16T11:14:03.088Z,7.50
2019-02-16T11:15:14.562Z,7.60
2019-02-16T11:16:23.204Z,7.60
2019-02-16T11:17:34.771Z,7.70
2019-02-16T11:18:55.111Z,7.60
2019-02-16T11:20:03.483Z,7.70
2019-02-16T11:21:09.114Z,7.80
2019-02-16T11:22:26.913Z,7.70
2019-02-16T11:23:32.388Z,7.70
2019-02-16T11:24:43.750Z,7.90
2019-02-16T11:25:52.484Z,7.70
2019-02-16T11:27:04.192Z,7.70
2019-02-16T11:28:24.800Z,7.70
2019-02-16T11:29:46.845Z,7.70
2019-02-16T11:31:04.460Z,7.70
2019-02-16T11:32:15.893Z,7.80
2019-02-16T11:33:27.088Z,7.90
2019-02-16T11:34:47.673Z,7.90
2019-02-16T11:36:02.336Z,7.90
2019-02-16T11:37:10.494Z,8.00
2019-02-16T11:38:21.923Z,8.00
2019-02-16T11:39:42.801Z,8.00
2019-02-16T11:40:48.358Z,8.10
2019-02-16T11:41:59.832Z,7.90
2019-02-16T11:43:05.519Z,7.80
2019-02-16T11:44:11.075Z,7.50
2019-02-16T11:45:16.647Z,7.40
2019-02-16T11:46:22.362Z,7.30
2019-02-16T11:47:29.544Z,7.20
2019-02-16T11:48:44.344Z,7.20
2019-02-16T11:49:50.989Z,7.10
2019-02-16T11:51:05.998Z,7.00
2019-02-16T11:52:14.333Z,6.90
2019-02-16T11:53:23.027Z,6.90
2019-02-16T11:54:31.316Z,6.80
2019-02-16T11:55:53.245Z,6.70
2019-02-16T11:57:17.164Z,6.60
2019-02-16T11:58:37.909Z,6.70
2019-02-16T11:59:46.317Z,6.70
2019-02-16T12:00:54.824Z,6.70
2019-02-16T12:02:12.208Z,6.70
2019-02-16T12:03:19.194Z,6.80
2019-02-16T12:04:30.913Z,6.80
2019-02-16T12:05:48.326Z,6.80
2019-02-16T12:06:57.017Z,6.90
2019-02-16T12:08:02.568Z,6.80
2019-02-16T12:09:24.205Z,6.80
2019-02-16T12:10:44.897Z,6.80
2019-02-16T12:11:50.491Z,6.80
2019-02-16T12:13:11.051Z,6.90
2019-02-16T12:14:25.649Z,6.90
2019-02-16T12:15:46.668Z,7.00
2019-02-16T12:16:52.373Z,7.00
2019-02-16T12:17:58.011Z,7.00
2019-02-16T12:19:12.599Z,7.10
2019-02-16T12:20:33.388Z,7.10
2019-02-16T12:21:49.208Z,7.10
2019-02-16T12:23:03.769Z,7.10
2019-02-16T12:24:09.330Z,7.10
2019-02-16T12:25:14.879Z,7.20
2019-02-16T12:26:22.460Z,7.20
2019-02-16T12:27:47.343Z,7.30
2019-02-16T12:28:52.878Z,7.30
2019-02-16T12:29:58.531Z,7.30
2019-02-16T12:31:04.098Z,7.40
2019-02-16T12:32:15.632Z,7.30
2019-02-16T12:33:33.292Z,7.40
2019-02-16T12:34:41.658Z,7.40
2019-02-16T12:35:50.436Z,7.40
2019-02-16T12:37:01.576Z,7.50
2019-02-16T12:38:10.143Z,7.40
2019-02-16T12:39:18.416Z,7.40
2019-02-16T12:40:30.337Z,7.40
2019-02-16T12:41:35.910Z,7.40
2019-02-16T12:42:50.291Z,7.50
2019-02-16T12:44:12.100Z,7.50
2019-02-16T12:45:23.512Z,7.50
2019-02-16T12:46:31.866Z,7.50
2019-02-16T12:47:37.537Z,7.50
2019-02-16T12:48:43.143Z,7.60
2019-02-16T12:50:05.144Z,7.60
2019-02-16T12:51:28.958Z,7.50
2019-02-16T12:52:43.490Z,7.50
2019-02-16T12:53:49.248Z,7.50
2019-02-16T12:54:54.834Z,7.60
2019-02-16T12:56:00.408Z,7.60
2019-02-16T12:57:05.973Z,7.60
2019-02-16T12:58:23.227Z,7.60
2019-02-16T12:59:34.482Z,7.60
2019-02-16T13:00:56.197Z,7.70
2019-02-16T13:02:20.087Z,7.80
2019-02-16T13:03:28.515Z,7.80
2019-02-16T13:04:34.134Z,7.80
2019-02-16T13:05:54.397Z,7.80
2019-02-16T13:07:10.380Z,7.80
2019-02-16T13:08:15.988Z,7.80
2019-02-16T13:09:33.679Z,7.80
2019-02-16T13:10:39.327Z,7.90
2019-02-16T13:12:03.026Z,7.90
2019-02-16T13:13:11.469Z,7.90
2019-02-16T13:14:26.118Z,8.00
2019-02-16T13:15:49.542Z,8.00
2019-02-16T13:17:03.975Z,8.10
2019-02-16T13:18:18.584Z,8.00
2019-02-16T13:19:40.205Z,8.00
2019-02-16T13:21:03.672Z,8.00
2019-02-16T13:22:09.275Z,8.00
2019-02-16T13:23:20.667Z,8.00
2019-02-16T13:24:32.350Z,7.90
2019-02-16T13:25:37.865Z,7.90
2019-02-16T13:26:49.591Z,7.90
2019-02-16T13:27:59.552Z,7.90
2019-02-16T13:29:12.321Z,7.90
2019-02-16T13:30:20.546Z,7.90
2019-02-16T13:31:34.964Z,7.90
2019-02-16T13:32:56.627Z,7.90
2019-02-16T13:34:18.336Z,8.00
2019-02-16T13:35:24.028Z,8.10
2019-02-16T13:36:29.588Z,8.10
2019-02-16T13:37:38.048Z,8.10
2019-02-16T13:38:59.581Z,8.10
2019-02-16T13:40:17.616Z,8.10
2019-02-16T13:41:23.257Z,8.20
2019-02-16T13:42:31.588Z,8.30
2019-02-16T13:43:52.388Z,8.20
2019-02-16T13:44:57.985Z,8.20
2019-02-16T13:46:21.799Z,8.10
2019-02-16T13:47:43.876Z,8.10
2019-02-16T13:48:55.350Z,8.10
2019-02-16T13:50:06.832Z,8.10
2019-02-16T13:51:21.460Z,8.10
2019-02-16T13:52:32.754Z,8.10
2019-02-16T13:53:53.537Z,8.20
2019-02-16T13:54:59.095Z,8.10
2019-02-16T13:56:21.009Z,8.20
2019-02-16T13:57:44.947Z,8.20
2019-02-16T13:59:05.588Z,8.20
2019-02-16T14:00:20.282Z,8.20
2019-02-16T14:01:29.185Z,8.20
2019-02-16T14:02:46.941Z,8.10
2019-02-16T14:03:52.596Z,8.10
2019-02-16T14:04:58.303Z,8.10
2019-02-16T14:06:09.534Z,8.10
2019-02-16T14:07:27.737Z,8.10
2019-02-16T14:08:51.056Z,8.10
2019-02-16T14:09:56.650Z,8.10
2019-02-16T14:11:05.370Z,8.00
2019-02-16T14:12:13.410Z,8.00
2019-02-16T14:13:18.975Z,8.10
2019-02-16T14:14:40.692Z,8.00
2019-02-16T14:15:46.274Z,8.00
2019-02-16T14:16:57.775Z,8.00
2019-02-16T14:18:01.776Z,8.00
2019-02-16T14:19:07.340Z,8.00
2019-02-16T14:20:11.439Z,8.00
2019-02-16T14:21:15.495Z,8.10
2019-02-16T14:22:20.552Z,8.10
2019-02-16T14:23:24.734Z,8.10
2019-02-16T14:24:43.527Z,8.10
2019-02-16T14:25:47.688Z,8.10
2019-02-16T14:26:51.800Z,8.20
2019-02-16T14:27:55.889Z,8.30
2019-02-16T14:29:00.383Z,8.30
2019-02-16T14:30:06.575Z,8.30
2019-02-16T14:31:10.849Z,8.40
2019-02-16T14:32:14.918Z,8.30
2019-02-16T14:33:18.824Z,8.30
2019-02-16T14:34:22.851Z,8.30
2019-02-16T14:35:26.916Z,8.40
2019-02-16T14:36:30.898Z,8.40
2019-02-16T14:37:52.935Z,8.40
2019-02-16T14:38:58.537Z,8.40
2019-02-16T14:40:02.805Z,8.40
2019-02-16T14:41:06.881Z,8.40
2019-02-16T14:42:10.993Z,8.30
2019-02-16T14:43:14.888Z,8.30
2019-02-16T14:44:18.922Z,8.30
2019-02-16T14:45:22.833Z,8.40
2019-02-16T14:46:26.985Z,8.40
2019-02-16T14:47:31.071Z,8.40
2019-02-16T14:48:35.104Z,8.30
2019-02-16T14:49:39.325Z,8.40
2019-02-16T14:50:43.695Z,8.40
2019-02-16T14:51:47.695Z,8.40
2019-02-16T14:52:51.809Z,8.40
2019-02-16T14:53:55.780Z,8.30
2019-02-16T14:55:04.211Z,8.30
2019-02-16T14:56:08.212Z,8.30
2019-02-16T14:57:12.195Z,8.30
2019-02-16T14:58:16.214Z,8.30
2019-02-16T14:59:21.465Z,8.30
2019-02-16T15:00:25.677Z,8.30
2019-02-16T15:01:29.743Z,8.40
2019-02-16T15:02:33.697Z,8.40
2019-02-16T15:03:37.655Z,8.40
2019-02-16T15:04:41.519Z,8.40
2019-02-16T15:05:45.544Z,8.40